createdAt,value
2023-01-18T00:01:20.230Z,0.33
2023-01-18T00:03:50.875Z,0.07
2023-01-18T00:06:19.220Z,0.26
2023-01-18T00:08:49.665Z,0.34
2023-01-18T00:11:18.945Z,0.26
2023-01-18T00:13:47.922Z,0.28
2023-01-18T00:16:18.253Z,0.41
2023-01-18T00:18:53.652Z,0.27
2023-01-18T00:21:22.414Z,0.23
2023-01-18T00:23:50.796Z,0.20
2023-01-18T00:26:19.659Z,0.20
2023-01-18T00:28:48.114Z,0.22
2023-01-18T00:31:18.802Z,0.26
2023-01-18T00:33:49.034Z,0.29
2023-01-18T00:36:21.095Z,0.34
2023-01-18T00:38:52.225Z,0.76
2023-01-18T00:41:21.128Z,0.47
2023-01-18T00:43:49.073Z,0.33
2023-01-18T00:46:19.135Z,0.39
2023-01-18T00:48:48.243Z,0.69
2023-01-18T00:51:19.018Z,0.60
2023-01-18T00:53:51.411Z,0.38
2023-01-18T00:56:22.829Z,0.62
2023-01-18T00:58:51.277Z,0.50
2023-01-18T01:01:19.842Z,1.48
2023-01-18T01:04:05.594Z,1.90
2023-01-18T01:06:46.251Z,1.28
2023-01-18T01:09:18.731Z,1.44
2023-01-18T01:12:07.840Z,1.75
2023-01-18T01:14:56.618Z,1.51
2023-01-18T01:17:46.601Z,1.45
2023-01-18T01:20:32.653Z,0.79
2023-01-18T01:23:26.984Z,1.41
2023-01-18T01:26:07.694Z,1.69
2023-01-18T01:28:36.407Z,1.39
2023-01-18T01:31:06.573Z,1.71
2023-01-18T01:33:36.214Z,1.40
2023-01-18T01:36:06.627Z,1.26
2023-01-18T01:38:35.020Z,1.76
2023-01-18T01:41:07.678Z,1.73
2023-01-18T01:43:47.193Z,1.28
2023-01-18T01:46:35.324Z,1.94
2023-01-18T01:49:09.794Z,1.33
2023-01-18T01:51:40.941Z,1.16
2023-01-18T01:54:19.519Z,1.24
2023-01-18T01:56:54.176Z,1.62
2023-01-18T01:59:23.088Z,1.57
2023-01-18T02:01:51.496Z,1.23
2023-01-18T02:04:20.302Z,1.28
2023-01-18T02:06:48.660Z,1.22
2023-01-18T02:09:18.924Z,1.50
2023-01-18T02:11:47.276Z,1.56
2023-01-18T02:14:17.479Z,1.34
2023-01-18T02:17:01.778Z,1.79
2023-01-18T02:20:02.873Z,1.10
2023-01-18T02:22:54.281Z,1.12
2023-01-18T02:25:46.172Z,1.65
2023-01-18T02:28:17.879Z,1.42
2023-01-18T02:30:52.997Z,1.31
2023-01-18T02:33:29.944Z,1.27
2023-01-18T02:36:01.897Z,1.24
2023-01-18T02:38:36.796Z,1.69
2023-01-18T02:41:14.090Z,1.26
2023-01-18T02:44:02.959Z,1.11
2023-01-18T02:46:34.636Z,1.94
2023-01-18T02:49:07.123Z,1.50
2023-01-18T02:51:36.368Z,1.07
2023-01-18T02:54:08.583Z,1.47
2023-01-18T02:56:41.016Z,1.24
2023-01-18T02:59:16.078Z,1.46
2023-01-18T03:01:48.905Z,1.41
2023-01-18T03:04:23.241Z,1.15
2023-01-18T03:06:57.264Z,0.88
2023-01-18T03:09:28.956Z,1.04
2023-01-18T03:12:02.361Z,1.30
2023-01-18T03:14:41.917Z,1.14
2023-01-18T03:17:15.728Z,0.98
2023-01-18T03:20:07.161Z,1.10
2023-01-18T03:22:56.646Z,1.31
2023-01-18T03:25:29.453Z,0.92
2023-01-18T03:28:18.557Z,1.18
2023-01-18T03:31:09.874Z,1.23
2023-01-18T03:33:45.398Z,0.57
2023-01-18T03:36:19.308Z,0.72
2023-01-18T03:38:49.666Z,1.11
2023-01-18T03:41:20.083Z,1.16
2023-01-18T03:43:51.374Z,1.02
2023-01-18T03:46:24.948Z,1.18
2023-01-18T03:48:53.539Z,0.50
2023-01-18T03:51:27.233Z,0.44
2023-01-18T03:54:05.632Z,1.09
2023-01-18T03:56:40.228Z,0.67
2023-01-18T03:59:09.675Z,0.57
2023-01-18T04:01:39.690Z,1.15
2023-01-18T04:04:08.086Z,1.01
2023-01-18T04:06:38.509Z,0.89
2023-01-18T04:09:08.177Z,0.97
2023-01-18T04:11:36.580Z,0.35
2023-01-18T04:14:04.875Z,0.86
2023-01-18T04:16:33.147Z,0.69
2023-01-18T04:19:02.811Z,0.79
2023-01-18T04:21:33.434Z,0.06
2023-01-18T04:24:01.761Z,0.12
2023-01-18T04:26:30.083Z,0.03
2023-01-18T04:29:00.946Z,0.19
2023-01-18T04:31:29.365Z,0.71
2023-01-18T04:33:57.751Z,0.81
2023-01-18T04:36:28.350Z,0.73
2023-01-18T04:38:59.252Z,0.63
2023-01-18T04:41:27.573Z,0.83
2023-01-18T04:43:55.941Z,1.22
2023-01-18T04:46:24.262Z,0.97
2023-01-18T04:48:52.865Z,1.33
2023-01-18T04:51:23.903Z,0.61
2023-01-18T04:53:53.803Z,0.38
2023-01-18T04:56:24.158Z,0.46
2023-01-18T04:58:55.627Z,0.87
2023-01-18T05:01:24.344Z,0.34
2023-01-18T05:03:55.161Z,0.48
2023-01-18T05:06:24.853Z,0.61
2023-01-18T05:08:56.768Z,0.59
2023-01-18T05:11:25.079Z,0.53
2023-01-18T05:13:53.700Z,0.37
2023-01-18T05:16:25.127Z,0.68
2023-01-18T05:18:53.827Z,0.55
2023-01-18T05:21:22.126Z,0.84
2023-01-18T05:23:50.453Z,0.71
2023-01-18T05:26:22.556Z,0.58
2023-01-18T05:28:52.147Z,0.64
2023-01-18T05:31:21.275Z,0.57
2023-01-18T05:33:50.356Z,0.55
2023-01-18T05:36:18.831Z,0.45
2023-01-18T05:38:47.984Z,0.66
2023-01-18T05:41:16.345Z,0.36
2023-01-18T05:43:46.261Z,0.54
2023-01-18T05:46:14.965Z,0.27
2023-01-18T05:48:43.279Z,0.46
2023-01-18T05:51:13.959Z,0.60
2023-01-18T05:53:42.245Z,0.36
2023-01-18T05:56:10.633Z,0.59
2023-01-18T05:58:39.275Z,0.59
2023-01-18T06:01:09.359Z,0.45
2023-01-18T06:03:37.834Z,0.66
2023-01-18T06:06:08.789Z,0.67
2023-01-18T06:08:37.491Z,0.52
2023-01-18T06:11:06.475Z,0.49
2023-01-18T06:13:37.980Z,0.56
2023-01-18T06:16:07.160Z,0.41
2023-01-18T06:18:38.350Z,0.46
2023-01-18T06:21:07.725Z,0.28
2023-01-18T06:23:36.165Z,0.40
2023-01-18T06:26:04.756Z,0.29
2023-01-18T06:28:33.108Z,0.44
2023-01-18T06:31:04.757Z,0.51
2023-01-18T06:33:33.064Z,0.39
2023-01-18T06:36:02.716Z,0.22
2023-01-18T06:38:31.224Z,0.41
2023-01-18T06:40:59.609Z,0.57
2023-01-18T06:43:27.847Z,0.67
2023-01-18T06:45:57.206Z,0.26
2023-01-18T06:48:26.515Z,0.30
2023-01-18T06:50:58.124Z,0.27
2023-01-18T06:53:30.795Z,0.22
2023-01-18T06:56:01.888Z,0.27
2023-01-18T06:58:32.754Z,0.21
2023-01-18T07:01:02.269Z,0.12
2023-01-18T07:03:32.359Z,0.11
2023-01-18T07:06:02.335Z,0.02
2023-01-18T07:08:32.870Z,-0.02
2023-01-18T07:11:05.433Z,0.12
2023-01-18T07:13:33.808Z,0.00
2023-01-18T07:16:02.939Z,0.42
2023-01-18T07:18:31.517Z,0.27
2023-01-18T07:21:01.105Z,0.27
2023-01-18T07:23:30.340Z,0.14
2023-01-18T07:26:01.859Z,0.20
2023-01-18T07:28:30.944Z,0.30
2023-01-18T07:30:59.621Z,0.31
2023-01-18T07:33:30.579Z,0.22
2023-01-18T07:35:59.545Z,0.11
2023-01-18T07:38:28.647Z,0.13
2023-01-18T07:41:03.204Z,0.32
2023-01-18T07:43:33.368Z,0.21
2023-01-18T07:46:03.963Z,0.22
2023-01-18T07:48:32.748Z,0.03
2023-01-18T07:51:02.725Z,0.04
2023-01-18T07:53:33.131Z,0.02
2023-01-18T07:56:03.838Z,0.13
2023-01-18T07:58:32.270Z,0.21
2023-01-18T08:01:04.321Z,0.12
2023-01-18T08:03:32.696Z,0.45
2023-01-18T08:06:01.821Z,0.32
2023-01-18T08:08:31.514Z,0.46
2023-01-18T08:11:05.106Z,0.47
2023-01-18T08:13:33.803Z,0.67
2023-01-18T08:16:04.207Z,0.43
2023-01-18T08:18:32.629Z,0.59
2023-01-18T08:21:01.266Z,0.41
2023-01-18T08:23:29.548Z,0.69
2023-01-18T08:26:03.449Z,0.31
2023-01-18T08:28:34.775Z,0.47
2023-01-18T08:31:08.988Z,0.70
2023-01-18T08:33:39.194Z,0.56
2023-01-18T08:36:11.454Z,0.48
2023-01-18T08:38:40.161Z,0.48
2023-01-18T08:41:11.857Z,0.29
2023-01-18T08:43:42.842Z,0.31
2023-01-18T08:46:11.179Z,0.45
2023-01-18T08:48:39.557Z,0.55
2023-01-18T08:51:10.673Z,0.47
2023-01-18T08:53:39.786Z,0.48
2023-01-18T08:56:09.130Z,0.58
2023-01-18T08:58:38.815Z,0.29
2023-01-18T09:01:07.881Z,0.68
2023-01-18T09:03:38.708Z,0.64
2023-01-18T09:06:11.799Z,0.66
2023-01-18T09:08:41.272Z,0.45
2023-01-18T09:11:11.747Z,1.10
2023-01-18T09:13:58.566Z,0.63
2023-01-18T09:16:27.677Z,1.11
2023-01-18T09:18:56.526Z,1.02
2023-01-18T09:21:25.481Z,0.67
2023-01-18T09:23:53.821Z,0.37
2023-01-18T09:26:22.128Z,0.95
2023-01-18T09:28:53.738Z,0.72
2023-01-18T09:31:26.389Z,0.84
2023-01-18T09:34:03.297Z,0.91
2023-01-18T09:36:42.129Z,1.19
2023-01-18T09:39:10.812Z,0.98
2023-01-18T09:41:43.129Z,0.80
2023-01-18T09:44:21.101Z,0.96
2023-01-18T09:46:54.314Z,0.92
2023-01-18T09:49:26.405Z,0.82
2023-01-18T09:52:06.116Z,1.18
2023-01-18T09:54:40.860Z,1.38
2023-01-18T09:57:17.126Z,1.46
2023-01-18T09:59:55.056Z,1.09
2023-01-18T10:02:25.736Z,1.55
2023-01-18T10:04:57.895Z,1.09
2023-01-18T10:07:30.526Z,1.07
2023-01-18T10:10:02.192Z,1.31
2023-01-18T10:12:37.970Z,0.93
2023-01-18T10:15:17.436Z,0.84
2023-01-18T10:17:47.281Z,1.00
2023-01-18T10:20:17.808Z,1.21
2023-01-18T10:22:52.248Z,1.27
2023-01-18T10:25:31.695Z,1.32
2023-01-18T10:28:27.411Z,1.46
2023-01-18T10:31:07.647Z,1.64
2023-01-18T10:33:40.935Z,1.56
2023-01-18T10:36:14.726Z,1.83
2023-01-18T10:38:44.586Z,1.95
2023-01-18T10:41:20.445Z,1.43
2023-01-18T10:43:48.886Z,1.59
2023-01-18T10:46:20.502Z,2.14
2023-01-18T10:48:50.533Z,1.96
2023-01-18T10:51:30.298Z,2.18
2023-01-18T10:53:59.380Z,1.70
2023-01-18T10:56:29.522Z,1.36
2023-01-18T10:59:00.355Z,1.85
2023-01-18T11:01:33.978Z,1.48
2023-01-18T11:04:07.425Z,1.77
2023-01-18T11:06:46.237Z,2.23
2023-01-18T11:09:41.616Z,2.15
2023-01-18T11:12:38.081Z,1.79
2023-01-18T11:15:31.605Z,2.28
2023-01-18T11:18:06.565Z,2.38
2023-01-18T11:20:44.553Z,2.01
2023-01-18T11:23:23.225Z,1.84
2023-01-18T11:25:55.974Z,2.02
2023-01-18T11:28:30.214Z,2.25
2023-01-18T11:31:06.491Z,2.05
2023-01-18T11:33:40.332Z,2.06
2023-01-18T11:36:09.324Z,2.12
2023-01-18T11:38:37.739Z,1.81
2023-01-18T11:41:13.531Z,1.71
2023-01-18T11:43:48.752Z,1.98
2023-01-18T11:46:31.706Z,1.44
2023-01-18T11:49:09.259Z,1.67
2023-01-18T11:51:45.587Z,1.63
2023-01-18T11:54:26.745Z,1.63
2023-01-18T11:56:59.620Z,2.03
2023-01-18T11:59:31.143Z,1.86
2023-01-18T12:02:37.532Z,2.04
2023-01-18T12:05:40.464Z,1.61
2023-01-18T12:08:26.942Z,2.22
2023-01-18T12:11:09.913Z,2.18
2023-01-18T12:13:43.192Z,2.44
2023-01-18T12:16:19.050Z,2.49
2023-01-18T12:19:17.062Z,2.29
2023-01-18T12:21:58.845Z,2.58
2023-01-18T12:24:41.892Z,2.32
2023-01-18T12:27:24.199Z,2.44
2023-01-18T12:30:11.716Z,2.34
2023-01-18T12:32:55.187Z,2.65
2023-01-18T12:35:38.628Z,2.87
2023-01-18T12:38:13.944Z,2.71
2023-01-18T12:41:03.157Z,2.28
2023-01-18T12:43:44.587Z,2.36
2023-01-18T12:46:21.824Z,2.57
2023-01-18T12:48:59.222Z,2.56
2023-01-18T12:51:31.330Z,2.58
2023-01-18T12:54:02.896Z,2.41
2023-01-18T12:56:36.387Z,2.53
2023-01-18T12:59:08.291Z,2.04
2023-01-18T13:01:42.184Z,2.21
2023-01-18T13:04:22.446Z,2.30
2023-01-18T13:06:54.571Z,2.32
2023-01-18T13:09:26.358Z,2.42
2023-01-18T13:11:58.422Z,1.47
2023-01-18T13:14:34.112Z,1.95
2023-01-18T13:17:11.003Z,2.11
2023-01-18T13:19:44.088Z,2.10
2023-01-18T13:22:25.133Z,2.10
2023-01-18T13:25:10.324Z,1.97
2023-01-18T13:27:40.125Z,2.11
2023-01-18T13:30:10.314Z,2.59
2023-01-18T13:32:39.328Z,2.15
2023-01-18T13:35:20.956Z,2.04
2023-01-18T13:37:55.815Z,2.03
2023-01-18T13:40:34.564Z,2.07
2023-01-18T13:43:05.695Z,2.34
2023-01-18T13:45:54.027Z,1.98
2023-01-18T13:48:42.440Z,2.32
2023-01-18T13:51:10.743Z,2.29
2023-01-18T13:53:50.364Z,2.10
2023-01-18T13:56:28.853Z,2.25
2023-01-18T13:59:04.798Z,2.22
2023-01-18T14:01:36.645Z,2.07
2023-01-18T14:04:19.832Z,1.80
2023-01-18T14:06:49.295Z,1.87
2023-01-18T14:09:20.757Z,2.00
2023-01-18T14:11:55.055Z,1.59
2023-01-18T14:14:29.170Z,1.86
2023-01-18T14:17:02.024Z,1.91
2023-01-18T14:19:39.044Z,2.47
2023-01-18T14:22:21.944Z,2.25
2023-01-18T14:25:09.380Z,1.95
2023-01-18T14:27:41.636Z,2.25
2023-01-18T14:30:22.266Z,1.70
2023-01-18T14:33:00.349Z,2.06
2023-01-18T14:35:28.819Z,2.15
2023-01-18T14:38:17.418Z,2.12
2023-01-18T14:40:48.081Z,2.01
2023-01-18T14:43:22.276Z,2.06
2023-01-18T14:45:58.670Z,1.80
2023-01-18T14:48:30.698Z,2.13
2023-01-18T14:51:00.560Z,2.27
2023-01-18T14:53:31.169Z,2.24
2023-01-18T14:56:08.109Z,2.18
2023-01-18T14:58:41.298Z,2.14
2023-01-18T15:01:27.283Z,2.43
2023-01-18T15:03:57.076Z,1.86
2023-01-18T15:06:36.256Z,2.12
2023-01-18T15:09:07.129Z,1.85
2023-01-18T15:11:37.319Z,2.06
2023-01-18T15:14:10.287Z,1.96
2023-01-18T15:16:40.276Z,1.84
2023-01-18T15:19:15.410Z,2.00
2023-01-18T15:21:44.073Z,1.51
2023-01-18T15:24:17.385Z,2.03
2023-01-18T15:26:59.247Z,1.77
2023-01-18T15:29:31.613Z,1.73
2023-01-18T15:32:09.249Z,1.62
2023-01-18T15:34:39.645Z,1.76
2023-01-18T15:37:13.676Z,1.91
2023-01-18T15:39:49.434Z,1.47
2023-01-18T15:42:19.047Z,1.86
2023-01-18T15:44:50.666Z,1.54
2023-01-18T15:47:25.805Z,1.38
2023-01-18T15:49:56.738Z,1.36
2023-01-18T15:52:39.063Z,1.23
2023-01-18T15:55:14.228Z,1.55
2023-01-18T15:57:55.814Z,1.63
2023-01-18T16:00:30.444Z,1.76
2023-01-18T16:03:01.685Z,1.80
2023-01-18T16:05:32.216Z,1.46
2023-01-18T16:08:18.935Z,1.51
2023-01-18T16:10:53.010Z,1.22
2023-01-18T16:13:31.876Z,1.00
2023-01-18T16:16:24.370Z,0.90
2023-01-18T16:19:04.098Z,1.15
2023-01-18T16:21:41.599Z,0.93
2023-01-18T16:24:19.528Z,0.56
2023-01-18T16:26:48.483Z,0.55
2023-01-18T16:29:17.131Z,0.51
2023-01-18T16:31:45.604Z,0.37
2023-01-18T16:34:26.829Z,0.31
2023-01-18T16:36:57.802Z,0.50
2023-01-18T16:39:26.206Z,0.15
2023-01-18T16:41:57.954Z,0.19
2023-01-18T16:44:27.341Z,0.41
2023-01-18T16:46:55.666Z,0.14
2023-01-18T16:49:26.680Z,0.24
2023-01-18T16:51:55.868Z,0.15
2023-01-18T16:54:24.317Z,0.11
2023-01-18T16:56:52.685Z,0.07
2023-01-18T16:59:22.823Z,-0.01
2023-01-18T17:01:51.910Z,-0.17
2023-01-18T17:04:20.294Z,-0.08
2023-01-18T17:06:50.227Z,-0.24
2023-01-18T17:09:21.539Z,-0.35
2023-01-18T17:11:50.363Z,-0.27
2023-01-18T17:14:19.652Z,-0.25
2023-01-18T17:16:49.925Z,-0.22
2023-01-18T17:19:20.456Z,-0.41
2023-01-18T17:21:51.400Z,-0.07
2023-01-18T17:24:22.031Z,-0.47
2023-01-18T17:26:50.845Z,-0.32
2023-01-18T17:29:21.301Z,-0.24
2023-01-18T17:31:53.504Z,-0.38
2023-01-18T17:34:28.065Z,-0.51
2023-01-18T17:36:59.430Z,-0.53
2023-01-18T17:39:42.643Z,-0.48
2023-01-18T17:42:29.824Z,-0.55
2023-01-18T17:45:04.088Z,-0.43
2023-01-18T17:47:34.316Z,-0.52
2023-01-18T17:50:08.694Z,-0.43
2023-01-18T17:52:39.291Z,-0.38
2023-01-18T17:55:11.588Z,-0.57
2023-01-18T17:57:40.665Z,-0.57
2023-01-18T18:00:11.713Z,-0.58
2023-01-18T18:02:40.568Z,-0.57
2023-01-18T18:05:10.148Z,-0.46
2023-01-18T18:07:39.882Z,-0.78
2023-01-18T18:10:09.645Z,-0.14
2023-01-18T18:12:38.127Z,-0.53
2023-01-18T18:15:07.733Z,-0.72
2023-01-18T18:17:36.284Z,-0.74
2023-01-18T18:20:05.400Z,-0.86
2023-01-18T18:22:36.040Z,-0.66
2023-01-18T18:25:07.540Z,-0.24
2023-01-18T18:27:45.204Z,-0.73
2023-01-18T18:30:14.905Z,-0.89
2023-01-18T18:32:43.317Z,-1.00
2023-01-18T18:35:24.380Z,-0.93
2023-01-18T18:37:55.405Z,-0.89
2023-01-18T18:40:25.622Z,-0.77
2023-01-18T18:43:01.829Z,-0.91
2023-01-18T18:45:31.822Z,-0.80
2023-01-18T18:48:00.263Z,-0.80
2023-01-18T18:50:29.321Z,-0.95
2023-01-18T18:52:58.155Z,-0.99
2023-01-18T18:55:28.060Z,-0.94
2023-01-18T18:57:56.859Z,-1.22
2023-01-18T19:00:26.885Z,-1.04
2023-01-18T19:02:59.130Z,-0.99
2023-01-18T19:05:27.643Z,-0.94
2023-01-18T19:07:56.361Z,-1.02
2023-01-18T19:10:27.487Z,-0.46
2023-01-18T19:12:58.405Z,-0.82
2023-01-18T19:15:27.447Z,-0.98
2023-01-18T19:17:55.743Z,-0.93
2023-01-18T19:20:24.532Z,-0.85
2023-01-18T19:22:52.838Z,-0.97
2023-01-18T19:25:21.467Z,-0.86
2023-01-18T19:27:49.815Z,-1.07
2023-01-18T19:30:20.017Z,-1.08
2023-01-18T19:32:50.804Z,-0.90
2023-01-18T19:35:20.404Z,-1.02
2023-01-18T19:37:49.655Z,-0.88
2023-01-18T19:40:18.327Z,-0.95
2023-01-18T19:42:54.210Z,-0.94
2023-01-18T19:45:28.391Z,-0.89
2023-01-18T19:47:58.391Z,-1.05
2023-01-18T19:50:28.522Z,-1.01
2023-01-18T19:52:56.986Z,-1.04
2023-01-18T19:55:25.382Z,-0.96
2023-01-18T19:57:56.715Z,-1.25
2023-01-18T20:00:26.511Z,-1.17
2023-01-18T20:02:54.902Z,-1.36
2023-01-18T20:05:23.338Z,-1.31
2023-01-18T20:07:51.929Z,-1.32
2023-01-18T20:10:21.139Z,-1.22
2023-01-18T20:12:49.809Z,-1.22
2023-01-18T20:15:18.948Z,-1.36
2023-01-18T20:17:48.766Z,-0.80
2023-01-18T20:20:31.293Z,-1.29
2023-01-18T20:23:03.542Z,-0.96
2023-01-18T20:25:32.773Z,-1.27
2023-01-18T20:28:03.226Z,-1.17
2023-01-18T20:30:32.188Z,-1.16
2023-01-18T20:33:02.280Z,-1.33
2023-01-18T20:35:30.701Z,-1.46
2023-01-18T20:37:59.159Z,-1.21
2023-01-18T20:40:27.562Z,-1.28
2023-01-18T20:42:55.846Z,-1.26
2023-01-18T20:45:24.215Z,-0.95
2023-01-18T20:47:52.501Z,-1.30
2023-01-18T20:50:23.172Z,-1.18
2023-01-18T20:52:51.836Z,-1.49
2023-01-18T20:55:20.579Z,-1.42
2023-01-18T20:57:51.843Z,-1.31
2023-01-18T21:00:23.813Z,-1.19
2023-01-18T21:02:54.663Z,-1.38
2023-01-18T21:05:25.490Z,-1.39
2023-01-18T21:07:56.216Z,-1.64
2023-01-18T21:10:38.342Z,-1.47
2023-01-18T21:13:07.141Z,-1.58
2023-01-18T21:15:35.894Z,-1.66
2023-01-18T21:18:04.890Z,-1.49
2023-01-18T21:20:34.819Z,-1.50
2023-01-18T21:23:03.117Z,-1.63
2023-01-18T21:25:31.562Z,-1.30
2023-01-18T21:28:00.237Z,-1.26
2023-01-18T21:30:28.844Z,-1.27
2023-01-18T21:32:57.154Z,-1.40
2023-01-18T21:35:25.544Z,-1.48
2023-01-18T21:37:56.129Z,-1.56
2023-01-18T21:40:24.510Z,-1.48
2023-01-18T21:43:10.306Z,-1.49
2023-01-18T21:45:57.967Z,-1.59
2023-01-18T21:48:28.383Z,-1.63
2023-01-18T21:51:18.731Z,-1.32
2023-01-18T21:54:07.055Z,-1.49
2023-01-18T21:56:37.734Z,-1.50
2023-01-18T22:02:38.528Z,-1.77
2023-01-18T22:05:08.554Z,-1.75
2023-01-18T22:07:37.100Z,-1.98
2023-01-18T22:10:07.179Z,-1.88
2023-01-18T22:12:38.793Z,-1.86
2023-01-18T22:15:08.035Z,-2.07
2023-01-18T22:17:37.710Z,-1.93
2023-01-18T22:20:07.016Z,-2.10
2023-01-18T22:22:35.357Z,-2.23
2023-01-18T22:25:07.583Z,-2.17
2023-01-18T22:27:38.249Z,-2.08
2023-01-18T22:30:07.682Z,-2.01
2023-01-18T22:32:37.401Z,-1.99
2023-01-18T22:35:06.404Z,-1.97
2023-01-18T22:37:34.709Z,-2.20
2023-01-18T22:40:03.130Z,-2.19
2023-01-18T22:42:32.171Z,-2.10
2023-01-18T22:45:00.707Z,-2.23
2023-01-18T22:47:29.096Z,-2.25
2023-01-18T22:49:59.139Z,-2.36
2023-01-18T22:52:27.563Z,-2.23
2023-01-18T22:54:55.933Z,-2.23
2023-01-18T22:57:24.614Z,-2.26
2023-01-18T22:59:52.953Z,-1.63
2023-01-18T23:02:21.765Z,-1.88
2023-01-18T23:04:50.191Z,-2.11
2023-01-18T23:07:20.120Z,-2.09
2023-01-18T23:09:50.634Z,-1.52
2023-01-18T23:12:19.637Z,-2.08
2023-01-18T23:15:05.443Z,-2.04
2023-01-18T23:17:44.397Z,-2.23
2023-01-18T23:20:15.444Z,-2.12
2023-01-18T23:22:45.806Z,-2.34
2023-01-18T23:25:14.145Z,-2.23
2023-01-18T23:27:42.455Z,-2.31
2023-01-18T23:30:12.645Z,-2.21
2023-01-18T23:32:41.268Z,-2.32
2023-01-18T23:35:09.844Z,-2.40
2023-01-18T23:37:38.163Z,-2.62
2023-01-18T23:40:27.749Z,-2.69
2023-01-18T23:43:13.758Z,-2.70
2023-01-18T23:46:01.362Z,-2.73
2023-01-18T23:48:47.637Z,-2.54
2023-01-18T23:51:35.940Z,-2.53
2023-01-18T23:54:23.353Z,-2.72
2023-01-18T23:56:53.107Z,-2.47
2023-01-18T23:59:21.847Z,-2.66
